Decoded Metar for KAIA (ALLIANCE in NE, USA) (IATA:AIA) | Meteo·Mobile Aviation Weather
aviador You're here:

KAIA Decoded Metar

ALLIANCE in NE, USA
Report Time2019-02-20 18:53:00
UTC Time2019-02-20 19:27:47
Flight Rules vfr VFR
Wind310° at 23 Gusting to 29 kt
W.Decomp.*RWY 30: 23.0 kt HW 0.4 kt LCW
RWY 26: 17.9 kt HW 14.5 kt RCW
RWY 35: 14.5 kt HW 17.9 kt LCW
W.Rank310° ranks 18
Current wind is above 310° avg. (11.3)
Visibility9999 m
Phenomena:N/A
Clouds:Broken 060 Hf
Expected CloudBase > 3,600 ft AGL from Temp-Dew spread
Ceiling6,000 ft
Temp-3°C (ISA -10)
Dew Point-12°C (50% RH)
AAT-14.5°C
QNH1001 hPa
Density Alt3,136 ft
Elevation3,924 ft
Report Wrong Elevation
Raw Report
KAIA 201853Z AUTO 31023G29KT 10SM BKN060 M03/M12 A2956 RMK AO2 PK
WND 31032/1824 SLP054 T10281117=

Extra information for KAIA:More info

Metar Taf Metar & Taf Last 4 Metars F.Rules Stats Wind Profile Meteogram Temp Stats Airport Information Weather charts Add Link Nearby VenuesMetar ALERT Operation Metar Decoded Social comments

AIRNAV info for KAIA